createdAt,value
2019-04-16T00:01:33.320Z,16.97
2019-04-16T00:04:27.227Z,16.03
2019-04-16T00:07:14.001Z,15.73
2019-04-16T00:10:00.967Z,15.40
2019-04-16T00:12:58.234Z,15.47
2019-04-16T00:15:27.435Z,14.63
2019-04-16T00:17:56.498Z,14.53
2019-04-16T00:20:25.583Z,13.60
2019-04-16T00:23:00.385Z,13.33
2019-04-16T00:25:30.736Z,13.67
2019-04-16T00:28:01.901Z,14.03
2019-04-16T00:30:35.449Z,13.20
2019-04-16T00:33:01.881Z,14.83
2019-04-16T00:35:32.385Z,13.90
2019-04-16T00:38:01.488Z,14.67
2019-04-16T00:40:30.633Z,14.67
2019-04-16T00:42:59.656Z,14.03
2019-04-16T00:45:28.831Z,13.80
2019-04-16T00:47:57.971Z,13.93
2019-04-16T00:50:27.048Z,13.27
2019-04-16T00:52:56.077Z,13.97
2019-04-16T00:55:25.186Z,14.10
2019-04-16T00:57:54.269Z,14.67
2019-04-16T01:00:23.355Z,15.63
2019-04-16T01:02:53.568Z,14.97
2019-04-16T01:05:22.861Z,14.27
2019-04-16T01:07:54.247Z,14.60
2019-04-16T01:10:23.403Z,14.17
2019-04-16T01:12:52.770Z,15.20
2019-04-16T01:15:21.829Z,14.63
2019-04-16T01:17:51.026Z,15.70
2019-04-16T01:20:20.111Z,13.53
2019-04-16T01:22:49.321Z,14.27
2019-04-16T01:25:20.332Z,13.33
2019-04-16T01:27:53.693Z,13.37
2019-04-16T01:30:36.626Z,13.27
2019-04-16T01:33:43.447Z,12.00
2019-04-16T01:36:31.167Z,13.20
2019-04-16T01:39:16.269Z,12.30
2019-04-16T01:41:32.945Z,12.23
2019-04-16T01:44:03.108Z,12.33
2019-04-16T01:46:32.847Z,12.63
2019-04-16T01:49:02.659Z,12.10
2019-04-16T01:51:33.782Z,12.90
2019-04-16T01:54:02.816Z,12.83
2019-04-16T01:56:31.959Z,11.93
2019-04-16T01:59:04.552Z,13.40
2019-04-16T02:01:35.946Z,11.70
2019-04-16T02:04:05.168Z,11.70
2019-04-16T02:06:34.363Z,11.63
2019-04-16T02:09:04.805Z,11.23
2019-04-16T02:11:33.944Z,12.63
2019-04-16T02:14:03.005Z,13.10
2019-04-16T02:16:32.076Z,13.20
2019-04-16T02:19:02.315Z,12.60
2019-04-16T02:21:31.650Z,13.53
2019-04-16T02:24:01.604Z,13.70
2019-04-16T02:26:30.714Z,13.47
2019-04-16T02:28:59.773Z,13.90
2019-04-16T02:31:28.811Z,13.30
2019-04-16T02:33:57.944Z,12.40
2019-04-16T02:36:27.066Z,13.37
2019-04-16T02:38:58.207Z,12.47
2019-04-16T02:41:27.356Z,12.10
2019-04-16T02:43:56.469Z,13.23
2019-04-16T02:46:30.831Z,12.70
2019-04-16T02:48:56.448Z,13.23
2019-04-16T02:51:31.083Z,12.10
2019-04-16T02:54:34.650Z,13.60
2019-04-16T02:57:25.742Z,13.07
2019-04-16T02:59:52.486Z,12.97
2019-04-16T03:02:59.050Z,12.40
2019-04-16T03:05:33.031Z,14.03
2019-04-16T03:08:05.016Z,13.40
2019-04-16T03:10:32.980Z,12.20
2019-04-16T03:13:02.077Z,13.90
2019-04-16T03:15:48.900Z,14.83
2019-04-16T03:18:22.994Z,13.83
2019-04-16T03:20:52.465Z,12.87
2019-04-16T03:23:22.980Z,12.53
2019-04-16T03:25:52.377Z,12.93
2019-04-16T03:28:23.605Z,12.80
2019-04-16T03:30:56.876Z,16.97
2019-04-16T03:33:25.983Z,15.70
2019-04-16T03:35:57.633Z,14.53
2019-04-16T03:38:26.357Z,13.47
2019-04-16T03:40:56.742Z,12.53
2019-04-16T03:43:25.847Z,13.23
2019-04-16T03:45:56.391Z,13.03
2019-04-16T03:48:25.437Z,12.07
2019-04-16T03:50:54.490Z,12.13
2019-04-16T03:53:23.537Z,12.80
2019-04-16T03:55:54.588Z,12.70
2019-04-16T03:58:23.495Z,12.30
2019-04-16T04:00:53.553Z,12.60
2019-04-16T04:03:25.805Z,12.20
2019-04-16T04:05:56.852Z,12.90
2019-04-16T04:08:26.262Z,13.47
2019-04-16T04:10:55.405Z,13.63
2019-04-16T04:13:24.489Z,13.83
2019-04-16T04:15:55.179Z,12.83
2019-04-16T04:18:24.454Z,12.13
2019-04-16T04:20:53.543Z,13.63
2019-04-16T04:23:25.507Z,13.20
2019-04-16T04:25:53.468Z,12.50
2019-04-16T04:28:22.553Z,12.00
2019-04-16T04:30:51.688Z,12.87
2019-04-16T04:33:40.851Z,13.10
2019-04-16T04:36:08.318Z,12.73
2019-04-16T04:38:38.424Z,12.73
2019-04-16T04:41:08.154Z,13.07
2019-04-16T04:43:40.047Z,13.40
2019-04-16T04:46:12.895Z,11.73
2019-04-16T04:48:40.017Z,12.87
2019-04-16T04:51:09.190Z,13.20
2019-04-16T04:53:38.277Z,13.43
2019-04-16T04:56:07.338Z,13.17
2019-04-16T04:58:36.380Z,12.90
2019-04-16T05:01:05.474Z,13.20
2019-04-16T05:04:07.189Z,12.60
2019-04-16T05:06:37.679Z,12.90
2019-04-16T05:09:07.692Z,12.47
2019-04-16T05:11:37.170Z,13.77
2019-04-16T05:14:06.210Z,12.50
2019-04-16T05:16:35.384Z,12.73
2019-04-16T05:19:04.490Z,12.20
2019-04-16T05:21:33.612Z,11.73
2019-04-16T05:24:02.654Z,12.20
2019-04-16T05:26:33.569Z,12.40
2019-04-16T05:29:17.389Z,13.10
2019-04-16T05:31:45.385Z,12.87
2019-04-16T05:34:17.728Z,13.17
2019-04-16T05:36:47.776Z,11.83
2019-04-16T05:39:16.140Z,13.40
2019-04-16T05:41:52.953Z,12.97
2019-04-16T05:44:21.333Z,11.67
2019-04-16T05:46:50.531Z,11.53
2019-04-16T05:49:24.626Z,11.53
2019-04-16T05:51:51.557Z,11.87
2019-04-16T05:54:44.504Z,11.93
2019-04-16T05:57:18.514Z,12.10
2019-04-16T05:59:47.571Z,11.60
2019-04-16T06:02:24.512Z,12.07
2019-04-16T06:04:55.863Z,12.90
2019-04-16T06:07:24.427Z,12.50
2019-04-16T06:09:53.634Z,12.70
2019-04-16T06:12:24.657Z,13.40
2019-04-16T06:14:58.903Z,13.17
2019-04-16T06:17:45.649Z,12.50
2019-04-16T06:20:26.899Z,12.37
2019-04-16T06:23:13.541Z,12.77
2019-04-16T06:25:52.971Z,12.33
2019-04-16T06:28:44.016Z,12.60
2019-04-16T06:31:26.956Z,13.13
2019-04-16T06:34:16.679Z,12.90
2019-04-16T06:36:53.054Z,12.67
2019-04-16T06:40:01.063Z,12.43
2019-04-16T06:42:46.819Z,11.77
2019-04-16T06:45:36.551Z,12.50
2019-04-16T06:48:05.900Z,12.87
2019-04-16T06:50:59.947Z,13.00
2019-04-16T06:53:43.608Z,12.80
2019-04-16T06:56:40.403Z,13.27
2019-04-16T06:59:26.603Z,12.67
2019-04-16T07:02:14.120Z,12.13
2019-04-16T07:05:01.967Z,11.50
2019-04-16T07:07:46.066Z,12.07
2019-04-16T07:10:16.188Z,12.60
2019-04-16T07:12:45.287Z,11.27
2019-04-16T07:15:16.482Z,11.83
2019-04-16T07:17:45.541Z,11.47
2019-04-16T07:20:16.694Z,11.80
2019-04-16T07:22:47.040Z,12.03
2019-04-16T07:25:16.619Z,11.43
2019-04-16T07:28:25.176Z,12.13
2019-04-16T07:31:06.073Z,12.03
2019-04-16T07:33:42.970Z,11.47
2019-04-16T07:36:31.039Z,13.10
2019-04-16T07:39:31.440Z,12.03
2019-04-16T07:42:11.749Z,11.57
2019-04-16T07:45:15.591Z,12.30
2019-04-16T07:48:09.576Z,12.40
2019-04-16T07:51:01.795Z,12.97
2019-04-16T07:53:41.292Z,12.13
2019-04-16T07:56:15.805Z,12.57
2019-04-16T07:58:44.879Z,12.87
2019-04-16T08:01:16.450Z,12.83
2019-04-16T08:03:45.734Z,12.87
2019-04-16T08:06:16.174Z,12.33
2019-04-16T08:08:45.209Z,11.83
2019-04-16T08:11:14.318Z,12.77
2019-04-16T08:13:43.923Z,12.67
2019-04-16T08:16:12.969Z,12.70
2019-04-16T08:18:51.594Z,13.10
2019-04-16T08:21:22.541Z,18.33
2019-04-16T08:24:00.731Z,13.63
2019-04-16T08:26:31.047Z,13.07
2019-04-16T08:29:00.080Z,12.40
2019-04-16T08:31:30.392Z,13.73
2019-04-16T08:33:59.467Z,12.87
2019-04-16T08:36:28.672Z,14.13
2019-04-16T08:38:57.817Z,13.70
2019-04-16T08:41:26.923Z,14.40
2019-04-16T08:43:55.960Z,15.57
2019-04-16T08:46:28.069Z,14.57
2019-04-16T08:48:55.828Z,15.00
2019-04-16T08:51:30.723Z,14.17
2019-04-16T08:53:55.775Z,13.27
2019-04-16T08:56:24.820Z,13.83
2019-04-16T08:58:57.324Z,13.40
2019-04-16T09:01:29.232Z,13.20
2019-04-16T09:04:01.538Z,12.97
2019-04-16T09:06:30.683Z,13.77
2019-04-16T09:09:21.736Z,14.50
2019-04-16T09:11:56.029Z,14.83
2019-04-16T09:14:26.649Z,13.80
2019-04-16T09:17:10.388Z,18.13
2019-04-16T09:19:41.652Z,14.57
2019-04-16T09:22:15.954Z,13.27
2019-04-16T09:25:12.541Z,13.67
2019-04-16T09:27:42.315Z,12.33
2019-04-16T09:30:39.332Z,12.13
2019-04-16T09:33:11.950Z,11.93
2019-04-16T09:36:05.650Z,12.00
2019-04-16T09:38:45.590Z,11.27
2019-04-16T09:41:32.345Z,12.20
2019-04-16T09:44:02.785Z,12.17
2019-04-16T09:46:50.604Z,13.73
2019-04-16T09:49:04.859Z,14.87
2019-04-16T09:51:34.836Z,11.87
2019-04-16T09:54:03.908Z,12.30
2019-04-16T09:56:33.032Z,11.93
2019-04-16T09:59:21.581Z,11.47
2019-04-16T10:01:53.798Z,10.93
2019-04-16T10:04:25.319Z,11.53
2019-04-16T10:06:54.480Z,9.13
2019-04-16T10:09:25.785Z,7.43
2019-04-16T10:11:57.328Z,7.83
2019-04-16T10:14:28.029Z,7.90
2019-04-16T10:16:57.294Z,7.50
2019-04-16T10:19:27.930Z,8.10
2019-04-16T10:21:56.959Z,7.93
2019-04-16T10:24:43.547Z,7.40
2019-04-16T10:27:17.484Z,7.23
2019-04-16T10:29:47.772Z,7.53
2019-04-16T10:32:18.702Z,9.10
2019-04-16T10:34:47.866Z,10.87
2019-04-16T10:37:17.950Z,12.83
2019-04-16T10:39:57.052Z,8.17
2019-04-16T10:42:41.635Z,7.60
2019-04-16T10:45:29.140Z,7.30
2019-04-16T10:48:24.828Z,6.77
2019-04-16T10:51:15.504Z,12.73
2019-04-16T10:54:08.594Z,16.30
2019-04-16T10:57:03.446Z,6.50
2019-04-16T10:59:54.425Z,6.10
2019-04-16T11:02:35.981Z,6.13
2019-04-16T11:05:21.798Z,6.33
2019-04-16T11:07:50.896Z,6.93
2019-04-16T11:10:19.920Z,6.53
2019-04-16T11:12:50.282Z,6.83
2019-04-16T11:15:22.790Z,6.27
2019-04-16T11:17:54.474Z,6.40
2019-04-16T11:20:23.561Z,7.00
2019-04-16T11:22:52.642Z,6.70
2019-04-16T11:25:22.949Z,6.20
2019-04-16T11:27:52.015Z,6.63
2019-04-16T11:30:36.471Z,6.10
2019-04-16T11:33:05.534Z,7.17
2019-04-16T11:35:35.940Z,6.60
2019-04-16T11:38:05.046Z,7.50
2019-04-16T11:40:34.133Z,7.47
2019-04-16T11:43:06.873Z,7.30
2019-04-16T11:45:35.980Z,7.33
2019-04-16T11:48:05.095Z,7.33
2019-04-16T11:50:36.375Z,6.73
2019-04-16T11:53:06.999Z,6.03
2019-04-16T11:55:36.423Z,5.30
2019-04-16T11:58:10.362Z,5.67
2019-04-16T12:00:45.105Z,5.80
2019-04-16T12:03:36.532Z,5.03
2019-04-16T12:06:28.437Z,4.20
2019-04-16T12:09:11.243Z,4.10
2019-04-16T12:11:49.180Z,4.20
2019-04-16T12:14:34.674Z,3.60
2019-04-16T12:17:09.228Z,3.20
2019-04-16T12:20:09.114Z,2.80
2019-04-16T12:23:03.298Z,3.00
2019-04-16T12:25:51.286Z,3.07
2019-04-16T12:28:43.324Z,3.10
2019-04-16T12:31:17.682Z,3.03
2019-04-16T12:33:54.080Z,2.47
2019-04-16T12:36:40.665Z,2.77
2019-04-16T12:39:46.786Z,2.87
2019-04-16T12:42:22.110Z,2.77
2019-04-16T12:45:09.538Z,2.87
2019-04-16T12:47:46.057Z,2.90
2019-04-16T12:50:46.254Z,2.87
2019-04-16T12:53:31.947Z,2.77
2019-04-16T12:56:16.299Z,3.60
2019-04-16T12:59:09.654Z,3.30
2019-04-16T13:02:00.755Z,3.33
2019-04-16T13:04:40.938Z,3.20
2019-04-16T13:07:13.645Z,3.10
2019-04-16T13:10:00.529Z,4.00
2019-04-16T13:12:47.196Z,3.10
2019-04-16T13:15:41.493Z,2.93
2019-04-16T13:18:44.002Z,2.93
2019-04-16T13:21:23.655Z,2.90
2019-04-16T13:24:21.280Z,2.97
2019-04-16T13:27:12.067Z,2.53
2019-04-16T13:29:41.190Z,3.00
2019-04-16T13:32:10.314Z,3.30
2019-04-16T13:34:39.455Z,2.57
2019-04-16T13:37:08.582Z,2.87
2019-04-16T13:40:02.969Z,3.03
2019-04-16T13:42:32.075Z,3.00
2019-04-16T13:45:17.927Z,3.23
2019-04-16T13:47:47.176Z,3.07
2019-04-16T13:50:23.960Z,3.50
2019-04-16T13:52:57.278Z,3.40
2019-04-16T13:55:45.231Z,3.40
2019-04-16T13:58:35.370Z,3.20
2019-04-16T14:01:14.453Z,3.20
2019-04-16T14:03:43.492Z,3.57
2019-04-16T14:06:14.009Z,3.20
2019-04-16T14:08:43.047Z,2.93
2019-04-16T14:11:12.257Z,3.07
2019-04-16T14:13:42.032Z,3.00
2019-04-16T14:16:13.531Z,2.70
2019-04-16T14:18:42.605Z,2.43
2019-04-16T14:21:11.773Z,3.27
2019-04-16T14:23:40.885Z,2.70
2019-04-16T14:26:10.061Z,3.13
2019-04-16T14:28:51.285Z,3.67
2019-04-16T14:31:16.343Z,4.30
2019-04-16T14:33:56.979Z,4.13
2019-04-16T14:36:27.600Z,3.80
2019-04-16T14:39:00.218Z,3.50
2019-04-16T14:41:29.476Z,3.60
2019-04-16T14:44:08.854Z,3.20
2019-04-16T14:46:39.672Z,2.90
2019-04-16T14:49:08.831Z,6.37
2019-04-16T14:51:37.876Z,5.13
2019-04-16T14:54:28.301Z,2.73
2019-04-16T14:56:58.801Z,2.77
2019-04-16T14:59:58.706Z,2.77
2019-04-16T15:02:40.876Z,2.77
2019-04-16T15:05:38.405Z,3.10
2019-04-16T15:08:32.371Z,3.33
2019-04-16T15:11:20.498Z,7.43
2019-04-16T15:13:54.401Z,6.27
2019-04-16T15:16:58.824Z,3.87
2019-04-16T15:19:52.703Z,2.93
2019-04-16T15:22:40.715Z,3.00
2019-04-16T15:25:20.102Z,2.50
2019-04-16T15:28:14.035Z,2.90
2019-04-16T15:31:14.112Z,3.30
2019-04-16T15:34:10.083Z,2.83
2019-04-16T15:36:40.213Z,3.10
2019-04-16T15:39:23.301Z,3.03
2019-04-16T15:42:09.707Z,4.37
2019-04-16T15:45:01.038Z,4.70
2019-04-16T15:48:04.461Z,3.70
2019-04-16T15:50:44.383Z,3.13
2019-04-16T15:53:39.618Z,3.33
2019-04-16T15:56:43.351Z,3.30
2019-04-16T15:59:37.478Z,3.33
2019-04-16T16:02:37.645Z,3.27
2019-04-16T16:05:27.392Z,7.33
2019-04-16T16:08:35.893Z,25.63
2019-04-16T16:11:08.194Z,5.43
2019-04-16T16:13:37.249Z,4.10
2019-04-16T16:16:09.877Z,4.10
2019-04-16T16:18:38.789Z,3.70
2019-04-16T16:21:11.063Z,3.60
2019-04-16T16:23:40.153Z,3.23
2019-04-16T16:26:09.199Z,4.30
2019-04-16T16:28:38.262Z,4.17
2019-04-16T16:31:07.372Z,4.33
2019-04-16T16:33:36.558Z,3.60
2019-04-16T16:36:05.595Z,4.30
2019-04-16T16:38:34.893Z,21.90
2019-04-16T16:41:04.108Z,4.33
2019-04-16T16:43:33.186Z,3.53
2019-04-16T16:46:30.203Z,3.40
2019-04-16T16:49:01.413Z,3.20
2019-04-16T16:51:30.536Z,2.87
2019-04-16T16:54:08.325Z,2.87
2019-04-16T16:56:47.030Z,3.43
2019-04-16T16:59:27.487Z,19.73
2019-04-16T17:02:28.079Z,6.03
2019-04-16T17:07:47.329Z,3.30
2019-04-16T17:10:16.574Z,3.00
2019-04-16T17:12:46.250Z,2.80
2019-04-16T17:15:16.421Z,4.30
2019-04-16T17:17:55.855Z,3.70
2019-04-16T17:20:26.526Z,3.20
2019-04-16T17:22:57.887Z,4.30
2019-04-16T17:25:36.287Z,6.63
2019-04-16T17:28:01.434Z,4.50
2019-04-16T17:30:32.701Z,3.30
2019-04-16T17:33:01.853Z,3.50
2019-04-16T17:35:32.943Z,4.47
2019-04-16T17:38:04.429Z,4.00
2019-04-16T17:40:58.723Z,3.40
2019-04-16T17:43:59.750Z,3.97
2019-04-16T17:46:34.269Z,3.67
2019-04-16T17:49:06.813Z,3.97
2019-04-16T17:51:43.063Z,3.70
2019-04-16T17:54:42.466Z,4.00
2019-04-16T17:57:29.225Z,4.13
2019-04-16T18:00:04.543Z,3.83
2019-04-16T18:02:53.478Z,4.30
2019-04-16T18:05:30.490Z,3.40
2019-04-16T18:08:32.727Z,3.53
2019-04-16T18:11:09.821Z,4.10
2019-04-16T18:13:58.060Z,8.63
2019-04-16T18:16:38.436Z,4.77
2019-04-16T18:19:13.696Z,6.77
2019-04-16T18:22:07.615Z,3.80
2019-04-16T18:25:00.208Z,4.00
2019-04-16T18:28:04.636Z,3.90
2019-04-16T18:30:36.106Z,3.70
2019-04-16T18:33:38.406Z,4.03
2019-04-16T18:36:22.661Z,3.40
2019-04-16T18:39:23.074Z,4.10
2019-04-16T18:41:56.435Z,3.73
2019-04-16T18:44:55.106Z,10.47
2019-04-16T18:48:01.055Z,12.63
2019-04-16T18:50:23.619Z,4.67
2019-04-16T18:52:51.964Z,4.43
2019-04-16T18:55:22.324Z,4.40
2019-04-16T18:57:53.463Z,5.23
2019-04-16T19:00:43.059Z,4.63
2019-04-16T19:03:14.999Z,4.30
2019-04-16T19:05:45.307Z,4.50
2019-04-16T19:08:14.736Z,4.13
2019-04-16T19:10:45.909Z,3.80
2019-04-16T19:13:19.674Z,4.40
2019-04-16T19:15:47.834Z,4.23
2019-04-16T19:18:19.635Z,4.63
2019-04-16T19:20:51.837Z,5.60
2019-04-16T19:23:21.347Z,6.57
2019-04-16T19:25:56.750Z,6.87
2019-04-16T19:28:26.694Z,5.90
2019-04-16T19:30:56.060Z,5.70
2019-04-16T19:33:25.944Z,4.77
2019-04-16T19:35:56.709Z,4.50
2019-04-16T19:38:25.872Z,5.10
2019-04-16T19:40:55.098Z,5.97
2019-04-16T19:43:24.156Z,4.93
2019-04-16T19:45:53.709Z,4.67
2019-04-16T19:48:34.607Z,6.03
2019-04-16T19:50:55.359Z,6.90
2019-04-16T19:53:24.381Z,6.40
2019-04-16T19:55:57.056Z,5.87
2019-04-16T19:58:27.168Z,5.20
2019-04-16T20:00:57.384Z,5.23
2019-04-16T20:03:30.126Z,4.77
2019-04-16T20:05:59.507Z,4.90
2019-04-16T20:08:34.401Z,5.40
2019-04-16T20:10:59.707Z,5.00
2019-04-16T20:13:29.884Z,5.27
2019-04-16T20:16:00.807Z,5.43
2019-04-16T20:18:30.134Z,5.97
2019-04-16T20:21:01.219Z,6.23
2019-04-16T20:23:30.212Z,5.57
2019-04-16T20:26:01.082Z,5.90
2019-04-16T20:28:35.206Z,6.17
2019-04-16T20:31:04.859Z,6.40
2019-04-16T20:33:36.389Z,6.30
2019-04-16T20:36:06.848Z,6.67
2019-04-16T20:38:37.270Z,6.00
2019-04-16T20:41:06.437Z,5.33
2019-04-16T20:43:37.497Z,6.57
2019-04-16T20:46:07.995Z,6.63
2019-04-16T20:48:38.802Z,6.53
2019-04-16T20:51:07.920Z,6.60
2019-04-16T20:53:38.047Z,6.40
2019-04-16T20:56:10.689Z,6.47
2019-04-16T20:58:39.821Z,7.37
2019-04-16T21:01:08.946Z,8.00
2019-04-16T21:03:38.082Z,7.20
2019-04-16T21:06:09.352Z,6.60
2019-04-16T21:08:38.010Z,6.93
2019-04-16T21:11:09.700Z,6.20
2019-04-16T21:13:38.949Z,7.40
2019-04-16T21:16:09.398Z,6.43
2019-04-16T21:18:38.469Z,5.63
2019-04-16T21:21:08.792Z,5.40
2019-04-16T21:23:37.922Z,5.87
2019-04-16T21:26:06.957Z,5.70
2019-04-16T21:28:40.646Z,5.30
2019-04-16T21:31:20.655Z,5.20
2019-04-16T21:34:10.881Z,4.50
2019-04-16T21:37:10.860Z,3.90
2019-04-16T21:39:47.129Z,4.27
2019-04-16T21:42:17.877Z,4.10
2019-04-16T21:44:48.731Z,4.40
2019-04-16T21:47:23.048Z,4.07
2019-04-16T21:49:51.121Z,3.50
2019-04-16T21:52:23.222Z,3.50
2019-04-16T21:54:51.106Z,3.50
2019-04-16T21:57:20.418Z,3.40
2019-04-16T21:59:50.266Z,3.37
2019-04-16T22:02:26.039Z,3.60
2019-04-16T22:04:55.133Z,3.33
2019-04-16T22:07:25.437Z,3.50
2019-04-16T22:09:54.652Z,3.00
2019-04-16T22:12:23.768Z,2.50
2019-04-16T22:14:54.230Z,2.77
2019-04-16T22:17:23.755Z,3.00
2019-04-16T22:20:01.283Z,2.80
2019-04-16T22:22:27.718Z,2.60
2019-04-16T22:24:56.496Z,2.63
2019-04-16T22:27:28.749Z,2.60
2019-04-16T22:29:58.014Z,2.87
2019-04-16T22:32:30.380Z,3.00
2019-04-16T22:34:58.177Z,3.00
2019-04-16T22:37:27.968Z,3.13
2019-04-16T22:40:08.669Z,3.13
2019-04-16T22:42:43.343Z,3.50
2019-04-16T22:45:33.901Z,3.20
2019-04-16T22:48:03.474Z,3.03
2019-04-16T22:50:34.750Z,2.70
2019-04-16T22:53:03.668Z,3.40
2019-04-16T22:55:32.699Z,3.30
2019-04-16T22:58:03.305Z,3.07
2019-04-16T23:00:35.495Z,3.30
2019-04-16T23:03:07.018Z,3.43
2019-04-16T23:05:38.286Z,3.20
2019-04-16T23:08:11.428Z,3.10
2019-04-16T23:10:39.359Z,3.23
2019-04-16T23:13:08.441Z,3.40
2019-04-16T23:15:38.977Z,3.20
2019-04-16T23:18:09.370Z,3.37
2019-04-16T23:20:40.051Z,3.60
2019-04-16T23:23:09.174Z,3.33
2019-04-16T23:25:38.625Z,3.60
2019-04-16T23:28:10.661Z,3.93
2019-04-16T23:30:38.474Z,3.43
2019-04-16T23:33:07.688Z,3.60
2019-04-16T23:35:43.174Z,3.80
2019-04-16T23:38:07.891Z,3.80
2019-04-16T23:40:37.023Z,3.47
2019-04-16T23:43:27.896Z,3.70
2019-04-16T23:46:14.503Z,3.67
2019-04-16T23:48:56.763Z,3.67
2019-04-16T23:51:31.124Z,3.90
2019-04-16T23:54:07.958Z,4.00
2019-04-16T23:57:01.060Z,3.50
2019-04-16T23:59:49.809Z,4.00
